Terminal Aerodrome Forecast
Issued by NWS Flagstaff, AZ

Home | Current Version | Previous Version | Text Only | Print | Product List | Glossary On
Versions: 1 2 3 4 5 6 7 8 9 10 11 12 13 14 15 16
000
FTUS45 KFGZ 201738
TAFFLG
TAF
KFLG 201738Z 2018/2118 22021G31KT 1SM -SHSN OVC010
      TEMPO 2021/2024 4SM -SHSN BKN015
     FM210000 24012G22KT 1/2SM SN FG OVC003
     FM211500 27011KT P6SM FEW010 SCT045=

USA.gov is the U.S. government's official web portal to all federal, state and local government web resources and services.